createdAt,value
2019-01-12T00:00:48.529Z,-3.3
2019-01-12T00:01:38.868Z,-3.4
2019-01-12T00:02:28.073Z,-3.4
2019-01-12T00:03:18.963Z,-3.3
2019-01-12T00:04:08.743Z,-3.3
2019-01-12T00:04:59.093Z,-3.4
2019-01-12T00:05:49.135Z,-3.4
2019-01-12T00:06:39.195Z,-3.4
2019-01-12T00:07:28.973Z,-3.4
2019-01-12T00:08:19.073Z,-3.4
2019-01-12T00:09:09.096Z,-3.4
2019-01-12T00:09:59.419Z,-3.4
2019-01-12T00:10:49.198Z,-3.4
2019-01-12T00:11:39.257Z,-3.4
2019-01-12T00:12:29.315Z,-3.4
2019-01-12T00:13:19.655Z,-3.4
2019-01-12T00:14:09.697Z,-3.4
2019-01-12T00:14:59.545Z,-3.4
2019-01-12T00:15:49.550Z,-3.4
2019-01-12T00:34:11.479Z,-3.4
2019-01-12T00:35:01.491Z,-3.4
2019-01-12T00:35:51.821Z,-3.4
2019-01-12T00:36:41.871Z,-3.4
2019-01-12T00:37:31.916Z,-3.4
2019-01-12T00:38:21.972Z,-3.4
2019-01-12T00:39:11.798Z,-3.4
2019-01-12T00:40:01.816Z,-3.5
2019-01-12T00:40:52.138Z,-3.4
2019-01-12T00:41:41.636Z,-3.5
2019-01-12T00:42:32.249Z,-3.5
2019-01-12T00:43:22.353Z,-3.5
2019-01-12T00:44:11.812Z,-3.5
2019-01-12T00:45:02.426Z,-3.5
2019-01-12T00:45:52.211Z,-3.5
2019-01-12T00:46:42.259Z,-3.5
2019-01-12T00:47:34.226Z,-3.6
2019-01-12T00:48:21.870Z,-3.6
2019-01-12T00:49:12.702Z,-3.6
2019-01-12T00:50:02.762Z,-3.6
2019-01-12T00:50:52.820Z,-3.6
2019-01-12T00:51:42.630Z,-3.6
2019-01-12T00:52:32.923Z,-3.6
2019-01-12T00:53:22.707Z,-3.6
2019-01-12T00:54:12.483Z,-3.7
2019-01-12T00:55:02.836Z,-3.7
2019-01-12T00:55:52.880Z,-3.7
2019-01-12T00:56:42.938Z,-3.7
2019-01-12T00:57:33.275Z,-3.7
2019-01-12T00:58:23.320Z,-3.7
2019-01-12T01:00:03.447Z,-3.7
2019-01-12T01:05:03.270Z,-3.8
2019-01-12T01:05:53.854Z,-3.8
2019-01-12T01:06:43.886Z,-3.8
2019-01-12T01:07:33.949Z,-3.8
2019-01-12T01:08:23.712Z,-3.8
2019-01-12T01:09:13.774Z,-3.8
2019-01-12T01:10:03.942Z,-3.9
2019-01-12T01:10:53.640Z,-3.9
2019-01-12T01:11:43.964Z,-3.9
2019-01-12T01:12:33.461Z,-3.9
2019-01-12T01:13:24.069Z,-3.9
2019-01-12T01:14:14.404Z,-3.9
2019-01-12T01:15:04.519Z,-3.9
2019-01-12T01:15:54.029Z,-3.9
2019-01-12T01:16:43.824Z,-3.9
2019-01-12T01:17:34.146Z,-4
2019-01-12T01:18:23.928Z,-3.9
2019-01-12T01:19:14.259Z,-4
2019-01-12T01:20:04.527Z,-4
2019-01-12T01:20:54.578Z,-4
2019-01-12T01:21:44.080Z,-4.1
2019-01-12T01:22:34.964Z,-4.1
2019-01-12T01:23:24.746Z,-4.1
2019-01-12T01:24:15.073Z,-4.1
2019-01-12T01:25:04.927Z,-4.1
2019-01-12T01:25:54.926Z,-4.1
2019-01-12T01:26:45.244Z,-4.1
2019-01-12T01:27:35.037Z,-4.2
2019-01-12T01:28:25.358Z,-4.2
2019-01-12T01:29:15.143Z,-4.2
2019-01-12T01:30:05.203Z,-4.3
2019-01-12T01:30:55.043Z,-4.3
2019-01-12T01:31:45.592Z,-4.3
2019-01-12T01:32:35.155Z,-4.3
2019-01-12T01:33:30.133Z,-4.3
2019-01-12T01:34:15.753Z,-4.3
2019-01-12T01:35:05.590Z,-4.3
2019-01-12T01:35:55.865Z,-4.4
2019-01-12T01:36:45.937Z,-4.4
2019-01-12T01:37:35.984Z,-4.4
2019-01-12T01:38:26.034Z,-4.4
2019-01-12T01:39:15.547Z,-4.4
2019-01-12T01:40:05.593Z,-4.4
2019-01-12T01:40:56.204Z,-4.4
2019-01-12T01:41:45.782Z,-4.4
2019-01-12T01:42:35.844Z,-4.4
2019-01-12T01:43:25.631Z,-4.4
2019-01-12T01:44:15.412Z,-4.4
2019-01-12T01:45:06.068Z,-4.4
2019-01-12T01:45:56.119Z,-4.4
2019-01-12T01:46:46.049Z,-4.4
2019-01-12T01:47:36.376Z,-4.4
2019-01-12T01:48:26.725Z,-4.4
2019-01-12T01:49:16.226Z,-4.5
2019-01-12T01:50:06.822Z,-4.5
2019-01-12T01:50:56.612Z,-4.5
2019-01-12T01:51:46.954Z,-4.5
2019-01-12T01:52:36.726Z,-4.5
2019-01-12T01:53:26.223Z,-4.5
2019-01-12T01:54:17.114Z,-4.5
2019-01-12T01:55:06.893Z,-4.5
2019-01-12T01:55:56.946Z,-4.6
2019-01-12T01:56:46.775Z,-4.6
2019-01-12T01:57:37.076Z,-4.6
2019-01-12T01:58:27.119Z,-4.6
2019-01-12T01:59:17.439Z,-4.6
2019-01-12T02:00:07.249Z,-4.6
2019-01-12T02:00:57.574Z,-4.6
2019-01-12T02:01:46.808Z,-4.7
2019-01-12T02:02:37.676Z,-4.7
2019-01-12T02:03:27.731Z,-4.8
2019-01-12T02:04:17.524Z,-4.8
2019-01-12T02:05:07.569Z,-4.8
2019-01-12T02:05:56.805Z,-4.8
2019-01-12T02:06:47.969Z,-4.8
2019-01-12T02:07:38.011Z,-4.8
2019-01-12T02:08:28.082Z,-4.8
2019-01-12T02:09:18.126Z,-4.8
2019-01-12T02:10:08.180Z,-4.8
2019-01-12T02:10:57.418Z,-4.8
2019-01-12T02:11:48.295Z,-4.8
2019-01-12T02:12:38.125Z,-4.9
2019-01-12T02:13:27.590Z,-4.9
2019-01-12T02:14:18.460Z,-4.9
2019-01-12T02:15:08.257Z,-4.9
2019-01-12T02:15:58.585Z,-4.9
2019-01-12T02:16:48.375Z,-4.8
2019-01-12T02:17:38.742Z,-4.8
2019-01-12T02:18:28.775Z,-4.8
2019-01-12T02:19:18.536Z,-4.8
2019-01-12T02:20:08.311Z,-4.8
2019-01-12T02:20:58.652Z,-4.8
2019-01-12T02:21:48.988Z,-4.8
2019-01-12T02:22:39.045Z,-4.8
2019-01-12T02:23:29.095Z,-4.8
2019-01-12T02:24:18.607Z,-4.8
2019-01-12T02:25:09.221Z,-4.8
2019-01-12T02:25:59.262Z,-4.8
2019-01-12T02:26:48.490Z,-4.8
2019-01-12T02:27:38.812Z,-4.8
2019-01-12T02:28:29.439Z,-4.8
2019-01-12T02:29:19.484Z,-4.8
2019-01-12T02:30:09.015Z,-4.8
2019-01-12T02:30:59.340Z,-4.8
2019-01-12T02:31:49.418Z,-4.8
2019-01-12T02:32:39.784Z,-4.8
2019-01-12T02:33:29.773Z,-4.8
2019-01-12T02:34:19.544Z,-4.8
2019-01-12T02:35:09.917Z,-4.8
2019-01-12T02:35:59.957Z,-4.8
2019-01-12T02:36:50.101Z,-4.8
2019-01-12T02:37:40.056Z,-4.8
2019-01-12T02:38:29.840Z,-4.8
2019-01-12T02:39:20.177Z,-4.8
2019-01-12T02:40:09.802Z,-4.8
2019-01-12T02:40:59.749Z,-4.8
2019-01-12T02:41:50.066Z,-4.8
2019-01-12T02:42:40.401Z,-4.8
2019-01-12T02:43:29.643Z,-4.8
2019-01-12T02:44:20.507Z,-4.8
2019-01-12T02:45:10.017Z,-4.9
2019-01-12T02:46:00.639Z,-4.8
2019-01-12T02:46:50.128Z,-4.8
2019-01-12T02:47:40.492Z,-4.8
2019-01-12T02:48:30.808Z,-4.8
2019-01-12T02:49:20.875Z,-4.8
2019-01-12T02:50:10.923Z,-4.8
2019-01-12T02:51:00.968Z,-4.8
2019-01-12T02:51:50.489Z,-4.9
2019-01-12T02:52:40.813Z,-4.8
2019-01-12T02:53:31.143Z,-4.8
2019-01-12T02:54:21.185Z,-4.8
2019-01-12T02:55:11.438Z,-4.8
2019-01-12T02:56:01.313Z,-4.9
2019-01-12T02:56:51.358Z,-4.8
2019-01-12T02:57:41.225Z,-4.9
2019-01-12T02:58:31.487Z,-4.9
2019-01-12T02:59:21.265Z,-4.9
2019-01-12T03:00:11.628Z,-4.9
2019-01-12T03:01:01.682Z,-4.9
2019-01-12T03:01:51.705Z,-4.9
2019-01-12T03:02:41.757Z,-4.9
2019-01-12T03:03:31.262Z,-4.9
2019-01-12T03:04:21.605Z,-4.9
2019-01-12T03:05:11.682Z,-4.9
2019-01-12T03:06:01.731Z,-4.9
2019-01-12T03:06:52.067Z,-4.9
2019-01-12T03:07:41.896Z,-4.9
2019-01-12T03:08:32.159Z,-4.9
2019-01-12T03:09:22.209Z,-4.9
2019-01-12T03:10:11.999Z,-4.9
2019-01-12T03:11:02.348Z,-4.9
2019-01-12T03:11:52.389Z,-4.9
2019-01-12T03:12:42.168Z,-4.9
2019-01-12T03:13:32.514Z,-4.9
2019-01-12T03:14:22.030Z,-4.9
2019-01-12T03:15:12.359Z,-4.9
2019-01-12T03:16:02.426Z,-4.9
2019-01-12T03:16:52.461Z,-4.9
2019-01-12T03:17:42.802Z,-4.9
2019-01-12T03:18:32.842Z,-4.9
2019-01-12T03:19:22.610Z,-4.9
2019-01-12T03:20:12.956Z,-4.9
2019-01-12T03:21:03.076Z,-4.9
2019-01-12T03:21:53.079Z,-4.9
2019-01-12T03:22:43.142Z,-4.9
2019-01-12T03:23:32.948Z,-4.9
2019-01-12T03:24:23.244Z,-4.9
2019-01-12T03:25:21.362Z,-4.9
2019-01-12T03:26:02.815Z,-4.9
2019-01-12T03:26:53.416Z,-5
2019-01-12T03:27:42.937Z,-5
2019-01-12T03:28:33.561Z,-5
2019-01-12T03:29:23.572Z,-5
2019-01-12T03:30:13.694Z,-5
2019-01-12T03:31:03.777Z,-5
2019-01-12T03:31:53.620Z,-5
2019-01-12T03:32:43.594Z,-5
2019-01-12T03:33:33.969Z,-5
2019-01-12T03:34:23.915Z,-5
2019-01-12T03:35:13.700Z,-5
2019-01-12T03:36:03.467Z,-5.1
2019-01-12T03:36:53.793Z,-5.1
2019-01-12T03:37:44.159Z,-5.1
2019-01-12T03:38:33.643Z,-5.1
2019-01-12T03:39:23.697Z,-5.1
2019-01-12T03:40:14.339Z,-5.1
2019-01-12T03:41:04.386Z,-5.1
2019-01-12T03:41:53.608Z,-5.1
2019-01-12T03:42:44.470Z,-5.1
2019-01-12T03:43:34.525Z,-5.1
2019-01-12T03:44:24.597Z,-5.1
2019-01-12T03:45:14.660Z,-5.2
2019-01-12T03:46:04.490Z,-5.2
2019-01-12T03:46:54.749Z,-5.2
2019-01-12T03:47:44.543Z,-5.2
2019-01-12T03:48:34.606Z,-5.2
2019-01-12T03:49:24.647Z,-5.3
2019-01-12T03:50:14.984Z,-5.2
2019-01-12T03:51:05.038Z,-5.3
2019-01-12T03:51:54.816Z,-5.3
2019-01-12T03:52:45.149Z,-5.3
2019-01-12T03:53:35.227Z,-5.3
2019-01-12T03:54:25.269Z,-5.3
2019-01-12T03:55:14.799Z,-5.3
2019-01-12T03:56:05.113Z,-5.3
2019-01-12T03:56:55.157Z,-5.3
2019-01-12T03:57:45.522Z,-5.3
2019-01-12T03:58:34.994Z,-5.3
2019-01-12T03:59:25.607Z,-5.3
2019-01-12T04:00:15.651Z,-5.3
2019-01-12T04:01:05.762Z,-5.3
2019-01-12T04:01:55.542Z,-5.4
2019-01-12T04:02:45.847Z,-5.4
2019-01-12T04:03:35.666Z,-5.3
2019-01-12T04:04:25.664Z,-5.4
2019-01-12T04:05:15.734Z,-5.4
2019-01-12T04:06:06.055Z,-5.4
2019-01-12T04:06:55.830Z,-5.4
2019-01-12T04:07:46.166Z,-5.4
2019-01-12T04:08:35.962Z,-5.4
2019-01-12T04:09:26.027Z,-5.4
2019-01-12T04:10:16.363Z,-5.4
2019-01-12T04:11:06.398Z,-5.4
2019-01-12T04:11:56.171Z,-5.4
2019-01-12T04:12:46.245Z,-5.4
2019-01-12T04:13:36.576Z,-5.4
2019-01-12T04:14:26.360Z,-5.4
2019-01-12T04:15:16.714Z,-5.4
2019-01-12T04:16:06.468Z,-5.4
2019-01-12T04:16:56.519Z,-5.4
2019-01-12T04:17:46.868Z,-5.4
2019-01-12T04:18:36.889Z,-5.4
2019-01-12T04:19:26.966Z,-5.5
2019-01-12T04:20:16.786Z,-5.5
2019-01-12T04:21:06.805Z,-5.5
2019-01-12T04:21:56.849Z,-5.4
2019-01-12T04:22:46.900Z,-5.5
2019-01-12T04:23:37.285Z,-5.5
2019-01-12T04:24:27.299Z,-5.5
2019-01-12T04:25:35.197Z,-5.5
2019-01-12T04:26:07.132Z,-5.5
2019-01-12T04:26:57.467Z,-5.5
2019-01-12T04:27:46.989Z,-5.5
2019-01-12T04:28:37.613Z,-5.5
2019-01-12T04:29:27.667Z,-5.5
2019-01-12T04:30:17.703Z,-5.5
2019-01-12T04:31:07.884Z,-5.5
2019-01-12T04:31:57.825Z,-5.5
2019-01-12T04:32:47.339Z,-5.5
2019-01-12T04:33:37.647Z,-5.5
2019-01-12T04:34:27.989Z,-5.6
2019-01-12T04:35:18.044Z,-5.6
2019-01-12T04:36:07.535Z,-5.6
2019-01-12T04:36:57.861Z,-5.6
2019-01-12T04:37:48.223Z,-5.6
2019-01-12T04:38:37.479Z,-5.6
2019-01-12T04:39:28.353Z,-5.6
2019-01-12T04:40:18.178Z,-5.6
2019-01-12T04:41:08.166Z,-5.6
2019-01-12T04:41:58.497Z,-5.6
2019-01-12T04:42:48.640Z,-5.6
2019-01-12T04:43:38.321Z,-5.6
2019-01-12T04:44:28.376Z,-5.6
2019-01-12T04:45:18.715Z,-5.6
2019-01-12T04:46:08.777Z,-5.6
2019-01-12T05:03:21.922Z,-5.5
2019-01-12T05:04:12.072Z,-5.5
2019-01-12T05:05:03.779Z,-5.4
2019-01-12T05:07:03.171Z,-5.4
2019-01-12T05:07:39.000Z,-5.4
2019-01-12T05:08:30.027Z,-5.4
2019-01-12T05:09:18.839Z,-5.4
2019-01-12T05:10:08.990Z,-5.4
2019-01-12T05:10:59.017Z,-5.4
2019-01-12T05:12:20.689Z,-5.4
2019-01-12T05:12:47.885Z,-5.4
2019-01-12T05:13:38.068Z,-5.4
2019-01-12T05:14:27.654Z,-5.4
2019-01-12T05:15:17.530Z,-5.4
2019-01-12T05:16:07.266Z,-5.4
2019-01-12T05:16:58.050Z,-5.3
2019-01-12T05:17:48.199Z,-5.4
2019-01-12T05:18:37.714Z,-5.4
2019-01-12T05:19:42.370Z,-5.3
2019-01-12T05:20:23.539Z,-5.3
2019-01-12T05:21:14.112Z,-5.3
2019-01-12T05:22:03.439Z,-5.3
2019-01-12T05:22:54.011Z,-5.3
2019-01-12T05:23:44.064Z,-5.3
2019-01-12T09:17:44.833Z,10.7
2019-01-12T09:18:35.155Z,11.3
2019-01-12T09:19:24.941Z,11.9
2019-01-12T09:20:15.323Z,12.5
2019-01-12T09:21:05.320Z,13.2
2019-01-12T09:21:55.360Z,13.9
2019-01-12T09:22:45.425Z,14.6
2019-01-12T09:23:35.480Z,15.4
2019-01-12T09:24:25.542Z,16.1
2019-01-12T09:25:15.604Z,16.9
2019-01-12T09:26:05.689Z,17.7
2019-01-12T09:26:55.428Z,18.4
2019-01-12T09:27:45.488Z,19.1
2019-01-12T09:28:35.547Z,19.8
2019-01-12T09:29:25.885Z,20.6
2019-01-12T09:30:15.131Z,21.2
2019-01-12T09:31:05.710Z,21.9
2019-01-12T09:31:56.053Z,22.6
2019-01-12T09:32:45.832Z,23.2
2019-01-12T09:33:35.937Z,23.9
2019-01-12T09:34:26.278Z,24.6
2019-01-12T09:35:16.279Z,25.2
2019-01-12T09:36:06.079Z,25.7
2019-01-12T09:36:56.122Z,26.2
2019-01-12T09:37:46.465Z,26.8
2019-01-12T09:38:35.952Z,27.4
2019-01-12T09:39:26.274Z,27.9
2019-01-12T09:40:16.625Z,28.4
2019-01-12T09:41:06.681Z,29.1
2019-01-12T09:41:56.744Z,29.7
2019-01-12T09:42:46.807Z,30.3
2019-01-12T09:43:36.847Z,30.7
2019-01-12T09:44:26.935Z,31.2
2019-01-12T09:45:16.960Z,31.8
2019-01-12T09:46:07.021Z,32.4
2019-01-12T09:46:57.081Z,32.9
2019-01-12T09:47:46.875Z,33.5
2019-01-12T09:48:36.965Z,34.1
2019-01-12T09:49:27.247Z,34.5
2019-01-12T09:50:17.363Z,35
2019-01-12T09:51:07.090Z,35.4
2019-01-12T09:51:57.429Z,35.9
2019-01-12T09:52:47.204Z,36.4
2019-01-12T09:53:37.532Z,36.9
2019-01-12T09:54:27.318Z,37.4
2019-01-12T09:55:17.667Z,37.9
2019-01-12T09:56:07.420Z,38.4
2019-01-12T09:56:57.776Z,38.8
2019-01-12T09:57:47.660Z,39.3
2019-01-12T09:58:37.871Z,39.6
2019-01-12T09:59:29.204Z,39.9
2019-01-12T10:00:17.447Z,40.4
2019-01-12T10:01:07.761Z,40.9
2019-01-12T10:01:58.247Z,41.4
2019-01-12T10:02:47.889Z,41.9
2019-01-12T10:03:38.279Z,42.3
2019-01-12T10:04:28.284Z,42.8
2019-01-12T10:05:18.052Z,43.3
2019-01-12T10:06:08.399Z,43.6
2019-01-12T10:06:58.179Z,43.9
2019-01-12T10:07:48.497Z,44.3
2019-01-12T10:08:38.276Z,44.7
2019-01-12T10:09:28.609Z,45.3
2019-01-12T10:10:20.426Z,45.8
2019-01-12T10:11:08.726Z,46.3
2019-01-12T10:11:58.781Z,46.7
2019-01-12T10:12:48.551Z,47.1
2019-01-12T10:13:38.338Z,47.7
2019-01-12T10:14:28.678Z,48.4
2019-01-12T10:15:18.733Z,49
2019-01-12T10:16:09.063Z,49.7
2019-01-12T10:16:59.113Z,50.1
2019-01-12T10:17:49.194Z,50.4
2019-01-12T10:18:38.399Z,50.6
2019-01-12T10:19:29.285Z,50.7
2019-01-12T10:20:19.075Z,50.9
2019-01-12T10:21:09.123Z,51.2
2019-01-12T10:21:59.188Z,51.4
2019-01-12T10:22:48.970Z,51.5
2019-01-12T10:23:38.778Z,51.6
2019-01-12T10:24:29.633Z,51.5
2019-01-12T10:25:19.683Z,51.6
2019-01-12T10:26:09.785Z,51.8
2019-01-12T10:27:00.914Z,52.1
2019-01-12T10:27:49.853Z,52.5
2019-01-12T10:28:39.640Z,52.8
2019-01-12T10:29:29.708Z,53
2019-01-12T10:30:19.752Z,53.4
2019-01-12T10:31:09.800Z,53.5
2019-01-12T10:32:00.138Z,53.7
2019-01-12T10:32:50.195Z,54
2019-01-12T10:33:40.310Z,54.3
2019-01-12T10:34:30.307Z,54.6
2019-01-12T10:35:20.369Z,54.8
2019-01-12T10:36:10.424Z,55.1
2019-01-12T10:37:00.222Z,55.1
2019-01-12T10:37:50.273Z,55
2019-01-12T10:38:40.308Z,54.9
2019-01-12T10:39:30.360Z,54.8
2019-01-12T10:40:20.160Z,54.7
2019-01-12T10:41:10.777Z,54.4
2019-01-12T10:42:00.529Z,54.2
2019-01-12T10:42:50.922Z,53.9
2019-01-12T10:43:40.659Z,53.8
2019-01-12T10:44:31.034Z,53.7
2019-01-12T10:45:21.050Z,53.4
2019-01-12T10:46:10.541Z,53.3
2019-01-12T10:47:00.886Z,53.3
2019-01-12T10:47:51.220Z,53.3
2019-01-12T10:48:41.281Z,53.5
2019-01-12T10:49:31.051Z,53.8
2019-01-12T10:50:20.857Z,54.2
2019-01-12T10:51:10.938Z,54.6
2019-01-12T10:52:01.509Z,55.1
2019-01-12T10:52:51.559Z,55.4
2019-01-12T10:55:07.576Z,56.1
2019-01-12T10:55:57.651Z,56.6
2019-01-12T10:56:47.793Z,56.8
2019-01-12T10:57:37.751Z,56.9
2019-01-12T10:58:27.810Z,57
2019-01-12T10:59:17.593Z,56.9
2019-01-12T11:00:07.368Z,56.8
2019-01-12T11:00:57.699Z,56.7
2019-01-12T11:01:48.028Z,56.5
2019-01-12T11:02:37.823Z,56.1
2019-01-12T11:03:28.182Z,55.9
2019-01-12T11:04:18.203Z,55.8
2019-01-12T11:05:07.988Z,55.5
2019-01-12T11:05:57.773Z,55.3
2019-01-12T11:06:48.377Z,54.9
2019-01-12T11:07:38.160Z,54.4
2019-01-12T11:08:28.213Z,54.3
2019-01-12T11:09:18.550Z,54.3
2019-01-12T11:10:08.610Z,54.4
2019-01-12T11:10:58.663Z,54.6
2019-01-12T11:11:48.438Z,54.9
2019-01-12T11:12:38.490Z,55.3
2019-01-12T11:13:28.833Z,55.5
2019-01-12T11:14:18.892Z,55.8
2019-01-12T11:15:10.303Z,56
2019-01-12T11:15:58.726Z,56.3
2019-01-12T11:16:49.064Z,56.6
2019-01-12T11:17:39.114Z,56.5
2019-01-12T11:18:28.910Z,56.3
2019-01-12T11:19:19.247Z,56.1
2019-01-12T11:20:09.014Z,55.7
2019-01-12T11:20:59.347Z,55.4
2019-01-12T11:21:49.397Z,55
2019-01-12T11:22:38.910Z,54.9
2019-01-12T11:23:29.509Z,54.7
2019-01-12T11:24:19.294Z,54.3
2019-01-12T11:25:09.622Z,53.9
2019-01-12T11:25:59.137Z,53.9
2019-01-12T11:26:49.752Z,53.8
2019-01-12T11:27:39.809Z,53.6
2019-01-12T11:28:29.591Z,53.4
2019-01-12T11:29:19.632Z,53.2
2019-01-12T11:30:09.973Z,53.1
2019-01-12T11:31:00.024Z,53.1
2019-01-12T11:31:49.330Z,53.3
2019-01-12T11:32:40.143Z,53.4
2019-01-12T11:33:29.441Z,53.3
2019-01-12T11:34:19.786Z,53
2019-01-12T11:35:09.561Z,52.8
2019-01-12T11:35:59.886Z,52.6
2019-01-12T11:36:49.723Z,52.5
2019-01-12T11:37:40.021Z,52.6
2019-01-12T11:38:29.540Z,52.8
2019-01-12T11:39:20.138Z,53
2019-01-12T11:40:09.901Z,53.4
2019-01-12T11:41:00.236Z,53.9
2019-01-12T11:41:50.775Z,54.3
2019-01-12T11:42:40.831Z,54.6
2019-01-12T11:43:30.626Z,54.9
2019-01-12T11:44:20.444Z,55.2
2019-01-12T11:45:10.725Z,55.8
2019-01-12T11:46:01.066Z,56.2
2019-01-12T11:46:51.116Z,56.6
2019-01-12T11:47:40.905Z,57
2019-01-12T11:48:30.960Z,57.2
2019-01-12T11:49:21.013Z,57.3
2019-01-12T11:50:11.067Z,57.2
2019-01-12T11:51:01.132Z,57.1
2019-01-12T11:51:50.900Z,57.2
2019-01-12T11:52:41.525Z,57.3
2019-01-12T11:53:31.093Z,57.6
2019-01-12T11:54:21.637Z,57.8
2019-01-12T11:55:11.704Z,58
2019-01-12T11:56:01.757Z,58.3
2019-01-12T11:57:41.389Z,58.8
2019-01-12T11:58:32.577Z,58.9
2019-01-12T11:59:21.502Z,58.9
2019-01-12T12:00:11.559Z,59
2019-01-12T12:01:01.059Z,59.1
2019-01-12T12:01:51.667Z,59.1
2019-01-12T12:02:41.735Z,59.1
2019-01-12T12:03:31.798Z,58.9
2019-01-12T12:04:21.844Z,58.8
2019-01-12T12:05:11.909Z,58.8
2019-01-12T12:06:01.684Z,58.8
2019-01-12T12:06:52.016Z,58.9
2019-01-12T12:07:42.076Z,59.1
2019-01-12T12:08:32.614Z,59
2019-01-12T12:09:22.669Z,59.1
2019-01-12T12:10:12.439Z,61.1
2019-01-12T12:11:02.510Z,56.9
2019-01-12T12:11:52.851Z,51.1
2019-01-12T12:12:42.907Z,48.1
2019-01-12T12:13:32.952Z,46.3
2019-01-12T12:14:22.758Z,44.8
2019-01-12T12:15:12.521Z,44
2019-01-12T12:16:03.971Z,43.8
2019-01-12T12:16:52.628Z,43.8
2019-01-12T12:17:43.246Z,43.9
2019-01-12T12:18:33.296Z,44.1
2019-01-12T12:19:23.362Z,44.4
2019-01-12T12:20:13.431Z,44.8
2019-01-12T12:21:03.474Z,45.1
2019-01-12T12:21:53.281Z,45.6
2019-01-12T12:22:43.590Z,45.9
2019-01-12T12:23:33.375Z,46.3
2019-01-12T12:24:23.429Z,46.6
2019-01-12T12:25:13.767Z,46.9
2019-01-12T12:26:03.828Z,47.2
2019-01-12T12:26:53.985Z,47.4
2019-01-12T12:27:43.948Z,47.6
2019-01-12T12:28:33.763Z,47.9
2019-01-12T12:29:24.050Z,48.2
2019-01-12T12:30:14.120Z,48.4
2019-01-12T12:31:04.170Z,48.6
2019-01-12T12:31:54.275Z,48.8
2019-01-12T12:32:44.013Z,49.1
2019-01-12T12:33:33.518Z,49.3
2019-01-12T12:34:24.400Z,49.4
2019-01-12T12:35:14.472Z,49.5
2019-01-12T12:36:04.524Z,49.7
2019-01-12T12:36:54.589Z,49.8
2019-01-12T12:37:44.369Z,50
2019-01-12T12:38:34.692Z,50
2019-01-12T12:39:24.469Z,50.2
2019-01-12T12:40:14.815Z,50.4
2019-01-12T12:41:04.879Z,50.6
2019-01-12T12:41:54.992Z,50.7
2019-01-12T12:42:44.724Z,50.8
2019-01-12T12:43:35.066Z,50.9
2019-01-12T12:44:25.140Z,50.9
2019-01-12T12:45:15.216Z,51
2019-01-12T12:46:05.239Z,51
2019-01-12T12:46:55.057Z,50.9
2019-01-12T12:47:45.342Z,50.8
2019-01-12T12:48:35.387Z,50.7
2019-01-12T12:49:25.166Z,50.6
2019-01-12T12:50:15.506Z,50.4
2019-01-12T12:51:05.561Z,50.4
2019-01-12T12:51:55.350Z,50.4
2019-01-12T12:52:45.681Z,50.3
2019-01-12T12:53:36.609Z,50.3
2019-01-12T12:54:25.799Z,50.4
2019-01-12T12:55:15.038Z,50.3
2019-01-12T12:56:05.916Z,50.3
2019-01-12T12:56:55.139Z,50.1
2019-01-12T12:57:45.753Z,49.9
2019-01-12T12:58:35.828Z,49.8
2019-01-12T12:59:25.718Z,49.7
2019-01-12T13:00:16.204Z,49.6
2019-01-12T13:01:05.978Z,49.5
2019-01-12T13:01:56.315Z,49.3
2019-01-12T13:02:46.381Z,48.9
2019-01-12T13:03:36.161Z,48.7
2019-01-12T13:04:25.960Z,48.6
2019-01-12T13:05:16.561Z,48.4
2019-01-12T13:06:06.610Z,48.4
2019-01-12T13:06:56.380Z,48.3
2019-01-12T13:07:46.720Z,48
2019-01-12T13:08:36.783Z,47.6
2019-01-12T13:09:26.567Z,47.3
2019-01-12T13:10:16.622Z,47.1
2019-01-12T13:11:06.415Z,46.9
2019-01-12T13:11:57.008Z,46.8
2019-01-12T13:12:46.526Z,46.6
2019-01-12T13:13:37.127Z,46.3
2019-01-12T13:14:27.187Z,46.1
2019-01-12T13:15:16.985Z,45.8
2019-01-12T13:16:07.055Z,45.5
2019-01-12T13:16:57.391Z,45.1
2019-01-12T13:17:47.144Z,44.8
2019-01-12T13:18:37.198Z,44.6
2019-01-12T13:19:27.566Z,44.3
2019-01-12T13:20:17.034Z,44.1
2019-01-12T13:21:07.129Z,43.9
2019-01-12T13:21:57.717Z,43.8
2019-01-12T13:22:47.495Z,43.4
2019-01-12T13:23:37.853Z,43.2
2019-01-12T13:24:27.886Z,42.9
2019-01-12T13:25:17.429Z,42.7
2019-01-12T13:26:07.998Z,42.4
2019-01-12T13:26:58.042Z,42.1
2019-01-12T13:27:47.838Z,41.8
2019-01-12T13:28:37.894Z,41.4
2019-01-12T13:29:27.939Z,41.3
2019-01-12T13:30:18.008Z,41.1
2019-01-12T13:31:08.066Z,40.9
2019-01-12T13:31:58.143Z,40.6
2019-01-12T13:32:48.171Z,40.4
2019-01-12T13:33:37.951Z,40.2
2019-01-12T13:34:28.299Z,39.9
2019-01-12T13:35:18.631Z,39.8
2019-01-12T13:36:08.421Z,39.6
2019-01-12T13:36:58.731Z,39.2
2019-01-12T13:37:48.795Z,38.9
2019-01-12T13:38:38.596Z,38.8
2019-01-12T13:39:34.273Z,38.6
2019-01-12T13:40:18.729Z,38.2
2019-01-12T13:41:08.752Z,38.1
2019-01-12T13:41:58.335Z,37.9
2019-01-12T13:42:48.596Z,37.6
2019-01-12T13:43:38.913Z,37.4
2019-01-12T13:44:28.438Z,37.2
2019-01-12T13:45:19.318Z,37.1
2019-01-12T13:46:09.090Z,36.9
2019-01-12T13:46:59.143Z,36.6
2019-01-12T13:47:49.480Z,36.3
2019-01-12T13:48:39.538Z,36.1
2019-01-12T13:49:29.605Z,35.8
2019-01-12T13:50:19.107Z,35.5
2019-01-12T13:51:09.713Z,35.3
2019-01-12T13:51:59.505Z,35.1
2019-01-12T13:52:49.850Z,34.8
2019-01-12T13:53:39.332Z,34.6
2019-01-12T13:54:29.984Z,34.3
2019-01-12T13:55:19.740Z,34
2019-01-12T13:56:09.779Z,33.8
2019-01-12T13:56:59.846Z,33.6
2019-01-12T13:57:50.701Z,33.3
2019-01-12T13:58:40.230Z,33
2019-01-12T13:59:30.015Z,32.8
2019-01-12T14:00:20.092Z,32.5
2019-01-12T14:01:10.407Z,32.3
2019-01-12T14:02:00.482Z,32
2019-01-12T14:02:50.725Z,31.8
2019-01-12T14:03:40.297Z,31.5
2019-01-12T14:04:30.357Z,31.3
2019-01-12T14:05:20.740Z,31.1
2019-01-12T14:06:10.749Z,30.8
2019-01-12T14:07:02.322Z,30.6
2019-01-12T14:07:58.343Z,30.3
2019-01-12T14:08:41.086Z,30
2019-01-12T14:10:20.762Z,29.4
2019-01-12T14:11:10.845Z,29.2
2019-01-12T14:12:00.681Z,29
2019-01-12T14:12:50.738Z,28.9
2019-01-12T14:13:40.231Z,28.7
2019-01-12T14:14:31.041Z,28.4
2019-01-12T14:15:20.837Z,28.1
2019-01-12T14:17:01.208Z,27.5
2019-01-12T14:17:51.276Z,27.2
2019-01-12T14:18:41.128Z,26.9
2019-01-12T14:19:31.673Z,26.7
2019-01-12T14:20:21.461Z,26.5
2019-01-12T14:21:11.783Z,26.2
2019-01-12T14:22:01.558Z,25.9
2019-01-12T14:22:51.897Z,25.6
2019-01-12T14:23:41.670Z,25.3
2019-01-12T14:24:32.018Z,24.9
2019-01-12T14:25:21.806Z,24.7
2019-01-12T14:26:11.858Z,24.4
2019-01-12T14:27:01.905Z,24.2
2019-01-12T14:27:56.569Z,23.9
2019-01-12T14:28:41.793Z,23.6
2019-01-12T14:29:32.070Z,23.4
2019-01-12T14:30:22.398Z,23.1
2019-01-12T14:31:12.470Z,22.8
2019-01-12T14:32:02.232Z,22.4
2019-01-12T14:32:52.598Z,22.3
2019-01-12T14:33:42.652Z,21.9
2019-01-12T14:34:32.180Z,21.6
2019-01-12T14:35:22.475Z,21.4
2019-01-12T14:36:12.527Z,21.1
2019-01-12T14:37:02.595Z,20.8
2019-01-12T14:37:52.934Z,20.5
2019-01-12T14:38:42.753Z,20.1
2019-01-12T14:39:32.770Z,19.8
2019-01-12T14:40:23.099Z,19.4
2019-01-12T14:41:12.650Z,19.2
2019-01-12T14:42:02.668Z,18.9
2019-01-12T14:42:53.264Z,18.6
2019-01-12T14:43:43.042Z,18.3
2019-01-12T14:44:32.399Z,18
2019-01-12T14:45:23.161Z,17.8
2019-01-12T14:46:13.239Z,17.4
2019-01-12T14:47:03.682Z,17.2
2019-01-12T14:47:53.609Z,16.9
2019-01-12T14:48:43.679Z,16.7
2019-01-12T14:49:33.735Z,16.4
2019-01-12T14:50:23.502Z,16.1
2019-01-12T14:51:13.587Z,15.9
2019-01-12T14:52:03.077Z,15.6
2019-01-12T14:52:53.688Z,15.3
2019-01-12T14:53:43.754Z,15.1
2019-01-12T14:54:34.067Z,14.9
2019-01-12T14:55:24.146Z,14.6
2019-01-12T14:56:13.626Z,14.3
2019-01-12T14:57:04.244Z,14.1
2019-01-12T14:58:01.536Z,13.8
2019-01-12T14:58:44.205Z,13.5
2019-01-12T14:59:34.158Z,13.3
2019-01-12T15:00:24.062Z,13
2019-01-12T15:01:14.330Z,12.7
2019-01-12T15:02:04.106Z,12.4
2019-01-12T15:02:54.657Z,12.2
2019-01-12T15:03:44.813Z,12
2019-01-12T15:04:34.515Z,11.7
2019-01-12T15:05:24.880Z,11.4
2019-01-12T15:06:14.882Z,11.2
2019-01-12T15:07:04.485Z,11
2019-01-12T15:07:54.705Z,10.8
2019-01-12T15:08:44.480Z,10.5
2019-01-12T15:09:34.534Z,10.3
2019-01-12T15:10:24.100Z,10.1
2019-01-12T15:11:14.941Z,9.9
2019-01-12T15:12:05.258Z,9.6
2019-01-12T15:12:55.030Z,9.4
2019-01-12T15:13:45.375Z,9.2
2019-01-12T15:14:35.430Z,8.9
2019-01-12T15:15:25.210Z,8.7
2019-01-12T15:16:15.535Z,8.5
2019-01-12T15:17:19.975Z,8.3
2019-01-12T15:17:55.369Z,8
2019-01-12T15:18:45.703Z,7.8
2019-01-12T15:19:35.760Z,7.6
2019-01-12T15:20:25.836Z,7.3
2019-01-12T15:21:15.593Z,7.1
2019-01-12T15:22:05.950Z,6.9
2019-01-12T15:22:55.991Z,6.8
2019-01-12T15:23:46.048Z,6.5
2019-01-12T15:24:36.095Z,6.3
2019-01-12T15:25:26.161Z,6.1
2019-01-12T15:26:15.940Z,5.9
2019-01-12T15:27:06.278Z,5.8
2019-01-12T15:27:56.320Z,5.6
2019-01-12T15:28:46.118Z,5.4
2019-01-12T15:29:36.441Z,5.3
2019-01-12T15:30:26.227Z,5.1
2019-01-12T15:31:16.558Z,4.9
2019-01-12T15:32:06.613Z,4.7
2019-01-12T15:32:56.683Z,4.6
2019-01-12T15:33:45.940Z,4.4
2019-01-12T15:34:36.780Z,4.2
2019-01-12T15:35:26.844Z,4
2019-01-12T15:36:16.617Z,3.9
2019-01-12T15:37:06.940Z,3.7
2019-01-12T15:37:56.735Z,3.6
2019-01-12T15:38:46.810Z,3.4
2019-01-12T15:39:37.124Z,3.3
2019-01-12T15:40:27.167Z,3.1
2019-01-12T15:41:17.224Z,2.9
2019-01-12T15:42:07.014Z,2.8
2019-01-12T15:42:57.332Z,2.6
2019-01-12T15:43:47.122Z,2.5
2019-01-12T15:44:37.174Z,2.3
2019-01-12T15:45:27.518Z,2.2
2019-01-12T15:46:17.572Z,2.1
2019-01-12T15:47:07.145Z,1.9
2019-01-12T15:47:57.123Z,1.8